sensor_id;sensor_type;location;lat;lon;timestamp;P1;durP1;ratioP1;P2;durP2;ratioP2
59338;SDS011;45117;50.960;5.500;2022-12-18T00:01:58;56.97;;;20.30;;
59338;SDS011;45117;50.960;5.500;2022-12-18T00:04:25;55.35;;;20.13;;
59338;SDS011;45117;50.960;5.500;2022-12-18T00:06:52;49.17;;;18.20;;
59338;SDS011;45117;50.960;5.500;2022-12-18T00:09:19;52.25;;;19.45;;
59338;SDS011;45117;50.960;5.500;2022-12-18T00:11:46;60.13;;;18.73;;
59338;SDS011;45117;50.960;5.500;2022-12-18T00:14:13;53.50;;;18.33;;
59338;SDS011;45117;50.960;5.500;2022-12-18T00:16:42;58.17;;;19.85;;
59338;SDS011;45117;50.960;5.500;2022-12-18T00:19:11;51.97;;;17.17;;
59338;SDS011;45117;50.960;5.500;2022-12-18T00:21:38;52.00;;;18.88;;
59338;SDS011;45117;50.960;5.500;2022-12-18T00:24:06;54.53;;;17.88;;
59338;SDS011;45117;50.960;5.500;2022-12-18T00:26:33;56.38;;;19.13;;
59338;SDS011;45117;50.960;5.500;2022-12-18T00:29:02;46.70;;;17.73;;
59338;SDS011;45117;50.960;5.500;2022-12-18T00:31:30;44.78;;;16.83;;
59338;SDS011;45117;50.960;5.500;2022-12-18T00:33:58;48.55;;;16.70;;
59338;SDS011;45117;50.960;5.500;2022-12-18T00:36:25;50.95;;;16.15;;
59338;SDS011;45117;50.960;5.500;2022-12-18T00:38:53;49.95;;;16.50;;
59338;SDS011;45117;50.960;5.500;2022-12-18T00:41:21;36.85;;;14.57;;
59338;SDS011;45117;50.960;5.500;2022-12-18T00:44:02;38.40;;;14.07;;
59338;SDS011;45117;50.960;5.500;2022-12-18T00:46:29;41.50;;;15.23;;
59338;SDS011;45117;50.960;5.500;2022-12-18T00:48:55;44.93;;;15.87;;
59338;SDS011;45117;50.960;5.500;2022-12-18T00:51:23;39.15;;;14.70;;
59338;SDS011;45117;50.960;5.500;2022-12-18T00:53:50;45.42;;;15.07;;
59338;SDS011;45117;50.960;5.500;2022-12-18T00:56:17;45.13;;;15.57;;
59338;SDS011;45117;50.960;5.500;2022-12-18T00:58:44;44.95;;;15.77;;
59338;SDS011;45117;50.960;5.500;2022-12-18T01:01:10;57.75;;;18.55;;
59338;SDS011;45117;50.960;5.500;2022-12-18T01:03:37;50.57;;;17.13;;
59338;SDS011;45117;50.960;5.500;2022-12-18T01:06:05;51.35;;;15.68;;
59338;SDS011;45117;50.960;5.500;2022-12-18T01:08:33;49.20;;;15.65;;
59338;SDS011;45117;50.960;5.500;2022-12-18T01:11:00;43.38;;;15.40;;
59338;SDS011;45117;50.960;5.500;2022-12-18T01:13:27;43.50;;;16.03;;
59338;SDS011;45117;50.960;5.500;2022-12-18T01:15:53;45.40;;;15.90;;
59338;SDS011;45117;50.960;5.500;2022-12-18T01:18:20;41.67;;;14.80;;
59338;SDS011;45117;50.960;5.500;2022-12-18T01:20:46;44.80;;;14.53;;
59338;SDS011;45117;50.960;5.500;2022-12-18T01:23:13;40.88;;;14.88;;
59338;SDS011;45117;50.960;5.500;2022-12-18T01:25:40;42.77;;;14.33;;
59338;SDS011;45117;50.960;5.500;2022-12-18T01:28:07;39.85;;;13.73;;
59338;SDS011;45117;50.960;5.500;2022-12-18T01:30:33;42.35;;;14.98;;
59338;SDS011;45117;50.960;5.500;2022-12-18T01:33:00;39.97;;;13.63;;
59338;SDS011;45117;50.960;5.500;2022-12-18T01:35:27;40.57;;;14.27;;
59338;SDS011;45117;50.960;5.500;2022-12-18T01:37:53;48.93;;;15.37;;
59338;SDS011;45117;50.960;5.500;2022-12-18T01:40:20;46.53;;;15.50;;
59338;SDS011;45117;50.960;5.500;2022-12-18T01:42:50;40.85;;;14.25;;
59338;SDS011;45117;50.960;5.500;2022-12-18T01:45:21;46.08;;;15.18;;
59338;SDS011;45117;50.960;5.500;2022-12-18T01:47:52;41.80;;;14.43;;
59338;SDS011;45117;50.960;5.500;2022-12-18T01:50:20;41.73;;;14.63;;
59338;SDS011;45117;50.960;5.500;2022-12-18T01:52:50;43.63;;;14.33;;
59338;SDS011;45117;50.960;5.500;2022-12-18T01:55:19;42.43;;;14.03;;
59338;SDS011;45117;50.960;5.500;2022-12-18T01:57:50;42.53;;;14.07;;
59338;SDS011;45117;50.960;5.500;2022-12-18T02:00:20;39.90;;;14.30;;
59338;SDS011;45117;50.960;5.500;2022-12-18T02:02:48;45.23;;;14.40;;
59338;SDS011;45117;50.960;5.500;2022-12-18T02:05:15;44.97;;;15.55;;
59338;SDS011;45117;50.960;5.500;2022-12-18T02:07:47;39.60;;;14.90;;
59338;SDS011;45117;50.960;5.500;2022-12-18T02:10:23;36.17;;;14.90;;
59338;SDS011;45117;50.960;5.500;2022-12-18T02:12:55;43.60;;;13.83;;
59338;SDS011;45117;50.960;5.500;2022-12-18T02:15:30;40.63;;;14.87;;
59338;SDS011;45117;50.960;5.500;2022-12-18T02:18:03;41.60;;;14.70;;
59338;SDS011;45117;50.960;5.500;2022-12-18T02:20:34;42.00;;;14.27;;
59338;SDS011;45117;50.960;5.500;2022-12-18T02:23:06;41.40;;;14.13;;
59338;SDS011;45117;50.960;5.500;2022-12-18T02:25:51;39.17;;;14.82;;
59338;SDS011;45117;50.960;5.500;2022-12-18T02:28:27;42.03;;;15.45;;
59338;SDS011;45117;50.960;5.500;2022-12-18T02:30:57;43.13;;;15.80;;
59338;SDS011;45117;50.960;5.500;2022-12-18T02:33:26;41.43;;;14.83;;
59338;SDS011;45117;50.960;5.500;2022-12-18T02:35:53;42.60;;;15.90;;
59338;SDS011;45117;50.960;5.500;2022-12-18T02:38:23;46.75;;;16.30;;
59338;SDS011;45117;50.960;5.500;2022-12-18T02:40:52;40.07;;;15.33;;
59338;SDS011;45117;50.960;5.500;2022-12-18T02:43:20;54.13;;;19.13;;
59338;SDS011;45117;50.960;5.500;2022-12-18T02:45:47;62.42;;;21.73;;
59338;SDS011;45117;50.960;5.500;2022-12-18T02:48:16;57.88;;;20.80;;
59338;SDS011;45117;50.960;5.500;2022-12-18T02:50:44;41.83;;;17.07;;
59338;SDS011;45117;50.960;5.500;2022-12-18T02:53:20;40.30;;;16.38;;
59338;SDS011;45117;50.960;5.500;2022-12-18T02:55:54;48.70;;;17.20;;
59338;SDS011;45117;50.960;5.500;2022-12-18T02:58:30;45.15;;;17.20;;
59338;SDS011;45117;50.960;5.500;2022-12-18T03:01:04;51.65;;;17.05;;
59338;SDS011;45117;50.960;5.500;2022-12-18T03:03:36;42.38;;;15.93;;
59338;SDS011;45117;50.960;5.500;2022-12-18T03:06:07;44.07;;;16.83;;
59338;SDS011;45117;50.960;5.500;2022-12-18T03:08:41;44.47;;;16.10;;
59338;SDS011;45117;50.960;5.500;2022-12-18T03:11:11;48.80;;;17.00;;
59338;SDS011;45117;50.960;5.500;2022-12-18T03:13:40;51.25;;;19.13;;
59338;SDS011;45117;50.960;5.500;2022-12-18T03:16:15;48.90;;;17.35;;
59338;SDS011;45117;50.960;5.500;2022-12-18T03:18:47;43.67;;;15.47;;
59338;SDS011;45117;50.960;5.500;2022-12-18T03:21:16;46.03;;;16.60;;
59338;SDS011;45117;50.960;5.500;2022-12-18T03:23:48;44.42;;;15.57;;
59338;SDS011;45117;50.960;5.500;2022-12-18T03:26:19;38.78;;;15.77;;
59338;SDS011;45117;50.960;5.500;2022-12-18T03:28:49;46.05;;;16.13;;
59338;SDS011;45117;50.960;5.500;2022-12-18T03:31:17;37.67;;;14.77;;
59338;SDS011;45117;50.960;5.500;2022-12-18T03:33:51;37.95;;;14.75;;
59338;SDS011;45117;50.960;5.500;2022-12-18T03:36:19;52.92;;;18.80;;
59338;SDS011;45117;50.960;5.500;2022-12-18T03:38:45;40.47;;;16.50;;
59338;SDS011;45117;50.960;5.500;2022-12-18T03:41:15;40.58;;;15.43;;
59338;SDS011;45117;50.960;5.500;2022-12-18T03:43:49;43.47;;;15.57;;
59338;SDS011;45117;50.960;5.500;2022-12-18T03:46:21;40.13;;;15.85;;
59338;SDS011;45117;50.960;5.500;2022-12-18T03:48:54;37.13;;;15.68;;
59338;SDS011;45117;50.960;5.500;2022-12-18T03:51:26;45.65;;;18.20;;
59338;SDS011;45117;50.960;5.500;2022-12-18T03:53:57;51.47;;;19.65;;
59338;SDS011;45117;50.960;5.500;2022-12-18T03:56:28;51.10;;;19.37;;
59338;SDS011;45117;50.960;5.500;2022-12-18T03:58:56;47.55;;;17.75;;
59338;SDS011;45117;50.960;5.500;2022-12-18T04:01:26;49.70;;;17.52;;
59338;SDS011;45117;50.960;5.500;2022-12-18T04:03:57;44.38;;;16.77;;
59338;SDS011;45117;50.960;5.500;2022-12-18T04:06:25;39.00;;;15.32;;
59338;SDS011;45117;50.960;5.500;2022-12-18T04:08:53;37.40;;;15.50;;
59338;SDS011;45117;50.960;5.500;2022-12-18T04:11:20;37.25;;;14.00;;
59338;SDS011;45117;50.960;5.500;2022-12-18T04:13:48;34.15;;;14.40;;
59338;SDS011;45117;50.960;5.500;2022-12-18T04:16:15;34.10;;;13.68;;
59338;SDS011;45117;50.960;5.500;2022-12-18T04:18:42;33.07;;;13.17;;
59338;SDS011;45117;50.960;5.500;2022-12-18T04:21:08;29.38;;;12.68;;
59338;SDS011;45117;50.960;5.500;2022-12-18T04:23:35;35.50;;;13.77;;
59338;SDS011;45117;50.960;5.500;2022-12-18T04:26:02;30.40;;;12.70;;
59338;SDS011;45117;50.960;5.500;2022-12-18T04:28:29;32.88;;;12.57;;
59338;SDS011;45117;50.960;5.500;2022-12-18T04:30:56;28.45;;;11.10;;
59338;SDS011;45117;50.960;5.500;2022-12-18T04:33:23;37.17;;;12.47;;
59338;SDS011;45117;50.960;5.500;2022-12-18T04:35:49;28.30;;;11.60;;
59338;SDS011;45117;50.960;5.500;2022-12-18T04:38:16;31.08;;;11.73;;
59338;SDS011;45117;50.960;5.500;2022-12-18T04:40:42;27.23;;;10.95;;
59338;SDS011;45117;50.960;5.500;2022-12-18T04:43:09;27.67;;;11.10;;
59338;SDS011;45117;50.960;5.500;2022-12-18T04:45:35;26.57;;;11.47;;
59338;SDS011;45117;50.960;5.500;2022-12-18T04:48:04;26.73;;;11.00;;
59338;SDS011;45117;50.960;5.500;2022-12-18T04:50:31;27.42;;;11.32;;
59338;SDS011;45117;50.960;5.500;2022-12-18T04:52:57;24.95;;;11.35;;
59338;SDS011;45117;50.960;5.500;2022-12-18T04:55:24;31.90;;;11.93;;
59338;SDS011;45117;50.960;5.500;2022-12-18T04:57:51;31.90;;;12.60;;
59338;SDS011;45117;50.960;5.500;2022-12-18T05:00:17;29.55;;;11.43;;
59338;SDS011;45117;50.960;5.500;2022-12-18T05:02:44;31.35;;;11.90;;
59338;SDS011;45117;50.960;5.500;2022-12-18T05:05:12;29.42;;;11.18;;
59338;SDS011;45117;50.960;5.500;2022-12-18T05:07:39;25.70;;;11.20;;
59338;SDS011;45117;50.960;5.500;2022-12-18T05:10:05;28.48;;;11.93;;
59338;SDS011;45117;50.960;5.500;2022-12-18T05:12:32;28.40;;;11.57;;
59338;SDS011;45117;50.960;5.500;2022-12-18T05:15:19;27.63;;;10.88;;
59338;SDS011;45117;50.960;5.500;2022-12-18T05:17:45;28.38;;;11.00;;
59338;SDS011;45117;50.960;5.500;2022-12-18T05:20:13;27.15;;;10.90;;
59338;SDS011;45117;50.960;5.500;2022-12-18T05:22:40;26.85;;;10.68;;
59338;SDS011;45117;50.960;5.500;2022-12-18T05:25:06;30.47;;;12.10;;
59338;SDS011;45117;50.960;5.500;2022-12-18T05:27:33;26.75;;;10.90;;
59338;SDS011;45117;50.960;5.500;2022-12-18T05:30:00;22.73;;;10.27;;
59338;SDS011;45117;50.960;5.500;2022-12-18T05:32:26;26.93;;;11.13;;
59338;SDS011;45117;50.960;5.500;2022-12-18T05:34:53;25.52;;;10.32;;
59338;SDS011;45117;50.960;5.500;2022-12-18T05:37:21;28.93;;;10.97;;
59338;SDS011;45117;50.960;5.500;2022-12-18T05:39:47;25.17;;;10.33;;
59338;SDS011;45117;50.960;5.500;2022-12-18T05:42:14;24.77;;;9.63;;
59338;SDS011;45117;50.960;5.500;2022-12-18T05:44:40;24.92;;;10.07;;
59338;SDS011;45117;50.960;5.500;2022-12-18T05:47:07;28.35;;;10.60;;
59338;SDS011;45117;50.960;5.500;2022-12-18T05:49:33;26.17;;;10.53;;
59338;SDS011;45117;50.960;5.500;2022-12-18T05:52:00;24.85;;;9.82;;
59338;SDS011;45117;50.960;5.500;2022-12-18T05:54:28;20.88;;;9.82;;
59338;SDS011;45117;50.960;5.500;2022-12-18T05:56:56;28.00;;;10.68;;
59338;SDS011;45117;50.960;5.500;2022-12-18T05:59:22;23.53;;;9.57;;
59338;SDS011;45117;50.960;5.500;2022-12-18T06:01:49;24.10;;;9.13;;
59338;SDS011;45117;50.960;5.500;2022-12-18T06:04:15;26.65;;;9.60;;
59338;SDS011;45117;50.960;5.500;2022-12-18T06:06:42;24.83;;;10.15;;
59338;SDS011;45117;50.960;5.500;2022-12-18T06:09:08;28.00;;;9.95;;
59338;SDS011;45117;50.960;5.500;2022-12-18T06:11:36;24.67;;;9.93;;
59338;SDS011;45117;50.960;5.500;2022-12-18T06:14:04;23.27;;;9.73;;
59338;SDS011;45117;50.960;5.500;2022-12-18T06:16:31;25.20;;;10.20;;
59338;SDS011;45117;50.960;5.500;2022-12-18T06:18:58;24.38;;;9.40;;
59338;SDS011;45117;50.960;5.500;2022-12-18T06:21:25;25.65;;;9.82;;
59338;SDS011;45117;50.960;5.500;2022-12-18T06:23:52;30.77;;;10.97;;
59338;SDS011;45117;50.960;5.500;2022-12-18T06:26:18;24.73;;;10.05;;
59338;SDS011;45117;50.960;5.500;2022-12-18T06:28:46;22.83;;;9.88;;
59338;SDS011;45117;50.960;5.500;2022-12-18T06:31:13;22.27;;;9.47;;
59338;SDS011;45117;50.960;5.500;2022-12-18T06:33:40;22.83;;;9.10;;
59338;SDS011;45117;50.960;5.500;2022-12-18T06:36:07;26.37;;;10.10;;
59338;SDS011;45117;50.960;5.500;2022-12-18T06:38:36;21.77;;;9.30;;
59338;SDS011;45117;50.960;5.500;2022-12-18T06:41:06;23.50;;;9.13;;
59338;SDS011;45117;50.960;5.500;2022-12-18T06:43:33;20.63;;;8.97;;
59338;SDS011;45117;50.960;5.500;2022-12-18T06:46:01;21.93;;;9.27;;
59338;SDS011;45117;50.960;5.500;2022-12-18T06:48:28;27.73;;;10.57;;
59338;SDS011;45117;50.960;5.500;2022-12-18T06:50:54;25.73;;;9.80;;
59338;SDS011;45117;50.960;5.500;2022-12-18T06:53:21;26.98;;;10.07;;
59338;SDS011;45117;50.960;5.500;2022-12-18T06:55:47;21.83;;;8.70;;
59338;SDS011;45117;50.960;5.500;2022-12-18T06:58:14;22.55;;;9.75;;
59338;SDS011;45117;50.960;5.500;2022-12-18T07:00:40;24.88;;;10.00;;
59338;SDS011;45117;50.960;5.500;2022-12-18T07:03:08;25.43;;;9.43;;
59338;SDS011;45117;50.960;5.500;2022-12-18T07:05:39;21.77;;;9.00;;
59338;SDS011;45117;50.960;5.500;2022-12-18T07:08:06;21.80;;;9.30;;
59338;SDS011;45117;50.960;5.500;2022-12-18T07:10:32;21.42;;;9.30;;
59338;SDS011;45117;50.960;5.500;2022-12-18T07:12:59;23.03;;;8.83;;
59338;SDS011;45117;50.960;5.500;2022-12-18T07:15:25;27.07;;;9.20;;
59338;SDS011;45117;50.960;5.500;2022-12-18T07:17:52;20.58;;;8.40;;
59338;SDS011;45117;50.960;5.500;2022-12-18T07:20:20;25.05;;;9.25;;
59338;SDS011;45117;50.960;5.500;2022-12-18T07:22:46;23.48;;;9.32;;
59338;SDS011;45117;50.960;5.500;2022-12-18T07:25:12;26.53;;;10.30;;
59338;SDS011;45117;50.960;5.500;2022-12-18T07:27:39;27.10;;;9.93;;
59338;SDS011;45117;50.960;5.500;2022-12-18T07:30:06;22.17;;;8.85;;
59338;SDS011;45117;50.960;5.500;2022-12-18T07:32:33;20.08;;;8.27;;
59338;SDS011;45117;50.960;5.500;2022-12-18T07:35:00;24.13;;;9.50;;
59338;SDS011;45117;50.960;5.500;2022-12-18T07:37:28;21.17;;;8.97;;
59338;SDS011;45117;50.960;5.500;2022-12-18T07:39:54;24.25;;;8.88;;
59338;SDS011;45117;50.960;5.500;2022-12-18T07:42:21;23.27;;;8.80;;
59338;SDS011;45117;50.960;5.500;2022-12-18T07:44:56;23.77;;;8.63;;
59338;SDS011;45117;50.960;5.500;2022-12-18T07:47:23;20.27;;;8.52;;
59338;SDS011;45117;50.960;5.500;2022-12-18T07:49:49;22.48;;;9.07;;
59338;SDS011;45117;50.960;5.500;2022-12-18T07:52:16;22.83;;;9.43;;
59338;SDS011;45117;50.960;5.500;2022-12-18T07:54:44;22.23;;;10.30;;
59338;SDS011;45117;50.960;5.500;2022-12-18T07:57:11;24.15;;;9.65;;
59338;SDS011;45117;50.960;5.500;2022-12-18T07:59:37;26.42;;;9.43;;
59338;SDS011;45117;50.960;5.500;2022-12-18T08:02:04;26.05;;;9.95;;
59338;SDS011;45117;50.960;5.500;2022-12-18T08:04:30;26.15;;;9.88;;
59338;SDS011;45117;50.960;5.500;2022-12-18T08:06:57;28.67;;;10.27;;
59338;SDS011;45117;50.960;5.500;2022-12-18T08:09:23;27.90;;;10.63;;
59338;SDS011;45117;50.960;5.500;2022-12-18T08:11:51;23.88;;;9.57;;
59338;SDS011;45117;50.960;5.500;2022-12-18T08:14:17;23.02;;;9.48;;
59338;SDS011;45117;50.960;5.500;2022-12-18T08:16:44;23.65;;;9.63;;
59338;SDS011;45117;50.960;5.500;2022-12-18T08:19:10;23.23;;;9.73;;
59338;SDS011;45117;50.960;5.500;2022-12-18T08:21:42;23.85;;;9.40;;
59338;SDS011;45117;50.960;5.500;2022-12-18T08:24:09;24.60;;;9.90;;
59338;SDS011;45117;50.960;5.500;2022-12-18T08:26:35;25.65;;;9.43;;
59338;SDS011;45117;50.960;5.500;2022-12-18T08:29:03;31.70;;;11.68;;
59338;SDS011;45117;50.960;5.500;2022-12-18T08:31:30;25.10;;;9.35;;
59338;SDS011;45117;50.960;5.500;2022-12-18T08:33:57;23.80;;;10.05;;
59338;SDS011;45117;50.960;5.500;2022-12-18T08:36:24;26.00;;;10.05;;
59338;SDS011;45117;50.960;5.500;2022-12-18T08:38:51;24.02;;;9.70;;
59338;SDS011;45117;50.960;5.500;2022-12-18T08:41:18;26.08;;;10.57;;
59338;SDS011;45117;50.960;5.500;2022-12-18T08:43:45;24.63;;;10.55;;
59338;SDS011;45117;50.960;5.500;2022-12-18T08:46:32;25.42;;;9.85;;
59338;SDS011;45117;50.960;5.500;2022-12-18T08:49:01;25.70;;;11.07;;
59338;SDS011;45117;50.960;5.500;2022-12-18T08:51:28;23.55;;;10.13;;
59338;SDS011;45117;50.960;5.500;2022-12-18T08:53:54;26.70;;;10.90;;
59338;SDS011;45117;50.960;5.500;2022-12-18T08:56:21;23.85;;;10.48;;
59338;SDS011;45117;50.960;5.500;2022-12-18T08:58:50;26.65;;;10.25;;
59338;SDS011;45117;50.960;5.500;2022-12-18T09:01:18;25.58;;;10.20;;
59338;SDS011;45117;50.960;5.500;2022-12-18T09:03:45;27.50;;;10.98;;
59338;SDS011;45117;50.960;5.500;2022-12-18T09:06:13;24.42;;;9.98;;
59338;SDS011;45117;50.960;5.500;2022-12-18T09:08:40;23.98;;;10.40;;
59338;SDS011;45117;50.960;5.500;2022-12-18T09:11:09;24.33;;;10.40;;
59338;SDS011;45117;50.960;5.500;2022-12-18T09:13:39;18.92;;;8.55;;
59338;SDS011;45117;50.960;5.500;2022-12-18T09:16:05;24.60;;;9.73;;
59338;SDS011;45117;50.960;5.500;2022-12-18T09:18:32;24.80;;;10.10;;
59338;SDS011;45117;50.960;5.500;2022-12-18T09:21:06;22.60;;;9.18;;
59338;SDS011;45117;50.960;5.500;2022-12-18T09:23:33;25.55;;;10.10;;
59338;SDS011;45117;50.960;5.500;2022-12-18T09:26:00;24.60;;;10.20;;
59338;SDS011;45117;50.960;5.500;2022-12-18T09:28:26;23.52;;;9.65;;
59338;SDS011;45117;50.960;5.500;2022-12-18T09:30:53;24.02;;;10.45;;
59338;SDS011;45117;50.960;5.500;2022-12-18T09:33:19;24.52;;;10.57;;
59338;SDS011;45117;50.960;5.500;2022-12-18T09:35:46;23.85;;;10.18;;
59338;SDS011;45117;50.960;5.500;2022-12-18T09:38:14;25.67;;;11.25;;
59338;SDS011;45117;50.960;5.500;2022-12-18T09:40:43;23.90;;;10.65;;
59338;SDS011;45117;50.960;5.500;2022-12-18T09:43:13;26.73;;;11.80;;
59338;SDS011;45117;50.960;5.500;2022-12-18T09:45:43;22.52;;;10.30;;
59338;SDS011;45117;50.960;5.500;2022-12-18T09:48:14;27.63;;;12.40;;
59338;SDS011;45117;50.960;5.500;2022-12-18T09:50:44;27.00;;;11.95;;
59338;SDS011;45117;50.960;5.500;2022-12-18T09:53:15;25.92;;;11.60;;
59338;SDS011;45117;50.960;5.500;2022-12-18T09:55:45;23.05;;;10.30;;
59338;SDS011;45117;50.960;5.500;2022-12-18T09:58:15;24.60;;;11.52;;
59338;SDS011;45117;50.960;5.500;2022-12-18T10:00:46;27.17;;;12.13;;
59338;SDS011;45117;50.960;5.500;2022-12-18T10:03:14;30.50;;;14.20;;
59338;SDS011;45117;50.960;5.500;2022-12-18T10:05:43;31.17;;;14.35;;
59338;SDS011;45117;50.960;5.500;2022-12-18T10:08:22;28.65;;;11.90;;
59338;SDS011;45117;50.960;5.500;2022-12-18T10:10:57;24.08;;;10.80;;
59338;SDS011;45117;50.960;5.500;2022-12-18T10:13:28;30.33;;;11.35;;
59338;SDS011;45117;50.960;5.500;2022-12-18T10:16:08;26.90;;;12.57;;
59338;SDS011;45117;50.960;5.500;2022-12-18T10:18:42;24.48;;;10.93;;
59338;SDS011;45117;50.960;5.500;2022-12-18T10:21:23;26.35;;;12.38;;
59338;SDS011;45117;50.960;5.500;2022-12-18T10:23:58;25.58;;;11.48;;
59338;SDS011;45117;50.960;5.500;2022-12-18T10:26:34;27.45;;;12.10;;
59338;SDS011;45117;50.960;5.500;2022-12-18T10:29:01;29.17;;;12.75;;
59338;SDS011;45117;50.960;5.500;2022-12-18T10:31:27;28.77;;;12.30;;
59338;SDS011;45117;50.960;5.500;2022-12-18T10:33:54;28.42;;;13.98;;
59338;SDS011;45117;50.960;5.500;2022-12-18T10:36:21;28.27;;;12.70;;
59338;SDS011;45117;50.960;5.500;2022-12-18T10:38:49;28.75;;;12.60;;
59338;SDS011;45117;50.960;5.500;2022-12-18T10:41:26;31.65;;;14.15;;
59338;SDS011;45117;50.960;5.500;2022-12-18T10:46:37;31.77;;;14.20;;
59338;SDS011;45117;50.960;5.500;2022-12-18T10:49:03;29.77;;;14.45;;
59338;SDS011;45117;50.960;5.500;2022-12-18T10:51:31;28.60;;;12.65;;
59338;SDS011;45117;50.960;5.500;2022-12-18T10:54:00;26.92;;;13.07;;
59338;SDS011;45117;50.960;5.500;2022-12-18T10:56:29;31.45;;;14.00;;
59338;SDS011;45117;50.960;5.500;2022-12-18T10:58:59;34.67;;;17.27;;
59338;SDS011;45117;50.960;5.500;2022-12-18T11:01:27;36.28;;;16.17;;
59338;SDS011;45117;50.960;5.500;2022-12-18T11:04:01;41.65;;;19.88;;
59338;SDS011;45117;50.960;5.500;2022-12-18T11:06:34;41.15;;;17.67;;
59338;SDS011;45117;50.960;5.500;2022-12-18T11:09:19;30.48;;;14.35;;
59338;SDS011;45117;50.960;5.500;2022-12-18T11:11:49;28.63;;;13.60;;
59338;SDS011;45117;50.960;5.500;2022-12-18T11:14:18;30.83;;;13.77;;
59338;SDS011;45117;50.960;5.500;2022-12-18T11:16:48;28.98;;;12.00;;
59338;SDS011;45117;50.960;5.500;2022-12-18T11:19:20;30.35;;;13.95;;
59338;SDS011;45117;50.960;5.500;2022-12-18T11:21:52;32.63;;;14.25;;
59338;SDS011;45117;50.960;5.500;2022-12-18T11:24:19;37.70;;;17.27;;
59338;SDS011;45117;50.960;5.500;2022-12-18T11:26:50;41.70;;;18.17;;
59338;SDS011;45117;50.960;5.500;2022-12-18T11:29:18;34.15;;;15.95;;
59338;SDS011;45117;50.960;5.500;2022-12-18T11:31:50;30.23;;;13.77;;
59338;SDS011;45117;50.960;5.500;2022-12-18T11:34:18;30.02;;;14.43;;
59338;SDS011;45117;50.960;5.500;2022-12-18T11:36:49;35.83;;;14.88;;
59338;SDS011;45117;50.960;5.500;2022-12-18T11:39:17;33.78;;;15.80;;
59338;SDS011;45117;50.960;5.500;2022-12-18T11:41:48;35.90;;;16.52;;
59338;SDS011;45117;50.960;5.500;2022-12-18T11:44:35;32.42;;;14.45;;
59338;SDS011;45117;50.960;5.500;2022-12-18T11:47:09;41.85;;;19.17;;
59338;SDS011;45117;50.960;5.500;2022-12-18T11:49:42;38.58;;;17.55;;
59338;SDS011;45117;50.960;5.500;2022-12-18T11:52:14;36.40;;;16.55;;
59338;SDS011;45117;50.960;5.500;2022-12-18T11:54:44;33.53;;;15.02;;
59338;SDS011;45117;50.960;5.500;2022-12-18T11:57:13;31.85;;;14.23;;
59338;SDS011;45117;50.960;5.500;2022-12-18T11:59:55;32.47;;;14.77;;
59338;SDS011;45117;50.960;5.500;2022-12-18T12:02:34;29.08;;;13.13;;
59338;SDS011;45117;50.960;5.500;2022-12-18T12:05:15;32.33;;;14.48;;
59338;SDS011;45117;50.960;5.500;2022-12-18T12:07:53;32.05;;;14.60;;
59338;SDS011;45117;50.960;5.500;2022-12-18T12:10:27;36.90;;;14.25;;
59338;SDS011;45117;50.960;5.500;2022-12-18T12:13:13;28.95;;;13.20;;
59338;SDS011;45117;50.960;5.500;2022-12-18T12:15:49;31.58;;;14.10;;
59338;SDS011;45117;50.960;5.500;2022-12-18T12:18:28;34.50;;;14.40;;
59338;SDS011;45117;50.960;5.500;2022-12-18T12:21:04;35.33;;;14.57;;
59338;SDS011;45117;50.960;5.500;2022-12-18T12:23:38;32.45;;;13.80;;
59338;SDS011;45117;50.960;5.500;2022-12-18T12:26:10;27.48;;;13.13;;
59338;SDS011;45117;50.960;5.500;2022-12-18T12:28:51;30.60;;;14.55;;
59338;SDS011;45117;50.960;5.500;2022-12-18T12:31:29;29.10;;;13.88;;
59338;SDS011;45117;50.960;5.500;2022-12-18T12:34:04;32.38;;;13.85;;
59338;SDS011;45117;50.960;5.500;2022-12-18T12:36:41;30.10;;;14.48;;
59338;SDS011;45117;50.960;5.500;2022-12-18T12:39:20;29.48;;;14.13;;
59338;SDS011;45117;50.960;5.500;2022-12-18T12:41:50;33.50;;;15.52;;
59338;SDS011;45117;50.960;5.500;2022-12-18T12:44:37;35.58;;;15.60;;
59338;SDS011;45117;50.960;5.500;2022-12-18T12:47:11;33.70;;;16.10;;
59338;SDS011;45117;50.960;5.500;2022-12-18T12:49:42;34.13;;;14.82;;
59338;SDS011;45117;50.960;5.500;2022-12-18T12:52:13;35.13;;;15.60;;
59338;SDS011;45117;50.960;5.500;2022-12-18T12:54:42;33.55;;;15.65;;
59338;SDS011;45117;50.960;5.500;2022-12-18T12:57:11;36.47;;;15.95;;
59338;SDS011;45117;50.960;5.500;2022-12-18T12:59:45;31.45;;;14.95;;
59338;SDS011;45117;50.960;5.500;2022-12-18T13:02:18;33.13;;;15.65;;
59338;SDS011;45117;50.960;5.500;2022-12-18T13:04:49;30.70;;;15.05;;
59338;SDS011;45117;50.960;5.500;2022-12-18T13:07:23;35.28;;;15.23;;
59338;SDS011;45117;50.960;5.500;2022-12-18T13:12:50;30.50;;;14.50;;
59338;SDS011;45117;50.960;5.500;2022-12-18T13:15:26;33.92;;;15.52;;
59338;SDS011;45117;50.960;5.500;2022-12-18T13:18:18;32.75;;;15.15;;
59338;SDS011;45117;50.960;5.500;2022-12-18T13:20:46;34.85;;;15.75;;
59338;SDS011;45117;50.960;5.500;2022-12-18T13:23:19;35.53;;;16.35;;
59338;SDS011;45117;50.960;5.500;2022-12-18T13:25:53;34.55;;;15.90;;
59338;SDS011;45117;50.960;5.500;2022-12-18T13:28:20;33.50;;;15.18;;
59338;SDS011;45117;50.960;5.500;2022-12-18T13:30:54;34.03;;;15.55;;
59338;SDS011;45117;50.960;5.500;2022-12-18T13:39:11;31.58;;;15.80;;
59338;SDS011;45117;50.960;5.500;2022-12-18T13:41:49;35.03;;;16.08;;
59338;SDS011;45117;50.960;5.500;2022-12-18T13:44:23;33.60;;;16.23;;
59338;SDS011;45117;50.960;5.500;2022-12-18T13:46:53;32.53;;;15.30;;
59338;SDS011;45117;50.960;5.500;2022-12-18T13:49:21;32.33;;;15.65;;
59338;SDS011;45117;50.960;5.500;2022-12-18T13:51:50;36.63;;;17.05;;
59338;SDS011;45117;50.960;5.500;2022-12-18T13:54:19;33.67;;;15.05;;
59338;SDS011;45117;50.960;5.500;2022-12-18T13:56:50;34.88;;;15.95;;
59338;SDS011;45117;50.960;5.500;2022-12-18T13:59:17;31.30;;;14.10;;
59338;SDS011;45117;50.960;5.500;2022-12-18T14:01:46;37.63;;;16.42;;
59338;SDS011;45117;50.960;5.500;2022-12-18T14:04:19;32.88;;;15.48;;
59338;SDS011;45117;50.960;5.500;2022-12-18T14:06:49;34.75;;;15.63;;
59338;SDS011;45117;50.960;5.500;2022-12-18T14:09:19;35.92;;;16.98;;
59338;SDS011;45117;50.960;5.500;2022-12-18T14:11:50;37.63;;;17.70;;
59338;SDS011;45117;50.960;5.500;2022-12-18T14:14:17;41.42;;;16.80;;
59338;SDS011;45117;50.960;5.500;2022-12-18T14:16:45;37.58;;;16.42;;
59338;SDS011;45117;50.960;5.500;2022-12-18T14:19:13;33.10;;;15.93;;
59338;SDS011;45117;50.960;5.500;2022-12-18T14:21:46;37.05;;;15.70;;
59338;SDS011;45117;50.960;5.500;2022-12-18T14:24:14;35.85;;;15.93;;
59338;SDS011;45117;50.960;5.500;2022-12-18T14:26:43;34.00;;;16.23;;
59338;SDS011;45117;50.960;5.500;2022-12-18T14:29:21;40.53;;;17.25;;
59338;SDS011;45117;50.960;5.500;2022-12-18T14:32:05;34.30;;;15.68;;
59338;SDS011;45117;50.960;5.500;2022-12-18T14:34:32;35.63;;;17.40;;
59338;SDS011;45117;50.960;5.500;2022-12-18T14:37:00;38.15;;;17.77;;
59338;SDS011;45117;50.960;5.500;2022-12-18T14:39:27;36.67;;;17.30;;
59338;SDS011;45117;50.960;5.500;2022-12-18T14:41:53;33.15;;;15.18;;
59338;SDS011;45117;50.960;5.500;2022-12-18T14:44:20;38.38;;;17.63;;
59338;SDS011;45117;50.960;5.500;2022-12-18T14:46:47;36.65;;;17.95;;
59338;SDS011;45117;50.960;5.500;2022-12-18T14:49:18;36.80;;;18.25;;